Time;durP1;ratioP1;P1;durP2;ratioP2;P2;SDS_P1;SDS_P2;PMS_P1;PMS_P2;Temp;Humidity;BMP_temperature;BMP_pressure;BME280_temperature;BME280_humidity;BME280_pressure;Samples;Min_cycle;Max_cycle;Signal;HPM_P1;HPM_P2
2024/01/14 00:02:05;;;;;;;79.75;31.60;;;3.30;99.90;;;;;;5036939;28;20037;-87
2024/01/14 00:04:31;;;;;;;81.50;32.55;;;3.30;99.90;;;;;;5044841;28;20068;-90
2024/01/14 00:06:56;;;;;;;82.88;33.05;;;3.30;99.90;;;;;;5045926;28;20029;-89
2024/01/14 00:09:22;;;;;;;82.78;31.23;;;3.30;99.90;;;;;;5038729;28;20034;-89
2024/01/14 00:11:48;;;;;;;89.32;33.95;;;3.30;99.90;;;;;;5038286;28;20105;-88
2024/01/14 00:14:14;;;;;;;80.90;32.22;;;3.30;99.90;;;;;;5041807;28;20052;-86
2024/01/14 00:16:40;;;;;;;89.45;32.00;;;3.30;99.90;;;;;;5039138;28;20037;-87
2024/01/14 00:19:05;;;;;;;95.30;33.92;;;3.20;99.90;;;;;;5043405;28;20026;-87
2024/01/14 00:21:34;;;;;;;87.13;34.05;;;3.20;99.90;;;;;;5042635;28;20061;-88
2024/01/14 00:23:59;;;;;;;93.68;34.88;;;3.20;99.90;;;;;;5041271;28;20091;-90
2024/01/14 00:26:27;;;;;;;95.32;34.03;;;3.20;99.90;;;;;;5034765;28;20033;-88
2024/01/14 00:28:54;;;;;;;87.15;32.00;;;3.20;99.90;;;;;;5042979;28;20038;-89
2024/01/14 00:31:19;;;;;;;87.15;32.70;;;3.20;99.90;;;;;;5043657;28;20022;-88
2024/01/14 00:33:45;;;;;;;99.18;35.55;;;3.20;99.90;;;;;;5060572;28;20052;-90
2024/01/14 00:36:11;;;;;;;86.53;35.30;;;3.20;99.90;;;;;;5038789;28;20042;-90
2024/01/14 00:38:37;;;;;;;96.82;35.30;;;3.20;99.90;;;;;;5034599;28;20025;-90
2024/01/14 00:41:03;;;;;;;87.18;33.85;;;3.20;99.90;;;;;;5044368;28;20109;-90
2024/01/14 00:43:29;;;;;;;91.95;34.13;;;3.20;99.90;;;;;;5042605;28;20079;-88
2024/01/14 00:45:55;;;;;;;92.32;35.38;;;3.10;99.90;;;;;;5034118;28;20025;-90
2024/01/14 00:48:20;;;;;;;100.40;37.10;;;3.20;99.90;;;;;;5043843;28;20091;-90
2024/01/14 00:50:46;;;;;;;102.80;39.35;;;3.20;99.90;;;;;;5041974;28;20094;-89
2024/01/14 00:53:11;;;;;;;101.65;37.40;;;3.20;99.90;;;;;;5039756;28;20389;-89
2024/01/14 00:55:37;;;;;;;87.20;31.85;;;3.20;99.90;;;;;;5046851;28;20029;-88
2024/01/14 00:58:03;;;;;;;106.82;37.97;;;3.10;99.90;;;;;;5050091;28;20491;-88
2024/01/14 01:00:29;;;;;;;94.35;34.92;;;3.20;99.90;;;;;;5034180;28;20025;-89
2024/01/14 01:02:55;;;;;;;103.97;38.53;;;3.10;99.90;;;;;;5043304;28;20067;-90
2024/01/14 01:05:20;;;;;;;104.07;37.88;;;3.10;99.90;;;;;;5037768;28;20053;-88
2024/01/14 01:07:46;;;;;;;101.88;38.42;;;3.10;99.90;;;;;;5058491;28;20033;-89
2024/01/14 01:10:12;;;;;;;112.38;37.20;;;3.10;99.90;;;;;;5046485;28;20022;-89
2024/01/14 01:12:38;;;;;;;113.78;39.47;;;3.10;99.90;;;;;;5038453;28;20030;-89
2024/01/14 01:15:07;;;;;;;107.60;36.75;;;3.10;99.90;;;;;;5034289;28;20080;-88
2024/01/14 01:17:33;;;;;;;119.35;41.33;;;3.00;99.90;;;;;;5034590;28;20053;-87
2024/01/14 01:19:59;;;;;;;96.65;36.08;;;3.10;99.90;;;;;;5030980;28;20029;-88
2024/01/14 01:22:25;;;;;;;101.40;36.05;;;3.00;99.90;;;;;;5033256;28;20117;-88
2024/01/14 01:24:51;;;;;;;107.88;37.20;;;3.10;99.90;;;;;;5043181;28;20086;-89
2024/01/14 01:27:16;;;;;;;101.07;37.65;;;3.00;99.90;;;;;;5045332;28;20029;-89
2024/01/14 01:29:42;;;;;;;93.68;35.20;;;3.00;99.90;;;;;;5043177;28;20057;-88
2024/01/14 01:32:09;;;;;;;107.15;38.22;;;3.00;99.90;;;;;;5044388;28;20064;-89
2024/01/14 01:34:37;;;;;;;100.97;38.33;;;3.10;99.90;;;;;;5042258;28;20072;-89
2024/01/14 01:37:04;;;;;;;100.85;36.10;;;3.10;99.90;;;;;;5039131;28;20032;-89
2024/01/14 01:39:30;;;;;;;97.63;35.55;;;3.10;99.90;;;;;;5029525;28;20052;-89
2024/01/14 01:41:56;;;;;;;96.63;36.83;;;3.10;99.90;;;;;;5031671;28;20044;-88
2024/01/14 01:44:22;;;;;;;92.25;35.20;;;3.10;99.90;;;;;;5044918;28;20516;-88
2024/01/14 01:46:49;;;;;;;98.70;35.95;;;3.10;99.90;;;;;;5038812;28;20027;-88
2024/01/14 01:49:15;;;;;;;93.78;36.15;;;3.10;99.90;;;;;;5042943;28;20033;-88
2024/01/14 01:51:44;;;;;;;97.78;36.55;;;3.10;99.90;;;;;;5037424;28;20430;-88
2024/01/14 01:54:11;;;;;;;90.88;33.40;;;3.20;99.90;;;;;;5033262;28;20476;-88
2024/01/14 01:56:38;;;;;;;100.57;35.65;;;3.10;99.90;;;;;;5056586;28;20054;-88
2024/01/14 01:59:04;;;;;;;83.25;30.73;;;3.10;99.90;;;;;;5044142;28;20409;-89
2024/01/14 02:01:32;;;;;;;99.32;35.85;;;3.10;99.90;;;;;;5039276;28;20124;-89
2024/01/14 02:03:59;;;;;;;94.63;36.88;;;3.10;99.90;;;;;;5029476;28;20033;-86
2024/01/14 02:06:27;;;;;;;94.03;33.63;;;3.10;99.90;;;;;;5047025;28;20029;-90
2024/01/14 02:08:52;;;;;;;87.03;34.25;;;3.10;99.90;;;;;;5043466;28;20041;-88
2024/01/14 02:11:18;;;;;;;99.65;36.50;;;3.10;99.90;;;;;;5041474;28;20060;-90
2024/01/14 02:13:44;;;;;;;93.03;35.55;;;3.10;99.90;;;;;;5040889;28;20485;-90
2024/01/14 02:16:09;;;;;;;96.30;36.05;;;3.10;99.90;;;;;;5035132;28;20025;-90
2024/01/14 02:18:35;;;;;;;93.53;34.47;;;3.10;99.90;;;;;;5040849;28;20097;-88
2024/01/14 02:21:00;;;;;;;87.70;35.10;;;3.10;99.90;;;;;;5041300;28;20064;-89
2024/01/14 02:23:28;;;;;;;87.22;33.38;;;3.10;99.90;;;;;;5035757;28;20030;-89
2024/01/14 02:25:53;;;;;;;85.50;34.47;;;3.10;99.90;;;;;;5043965;28;20051;-88
2024/01/14 02:28:20;;;;;;;104.30;38.60;;;3.10;99.90;;;;;;5040381;28;20042;-90
2024/01/14 02:30:46;;;;;;;91.93;35.58;;;3.10;99.90;;;;;;5030404;28;20021;-90
2024/01/14 02:33:11;;;;;;;96.95;37.58;;;3.10;99.90;;;;;;5041719;28;20120;-89
2024/01/14 02:35:39;;;;;;;100.50;38.83;;;3.10;99.90;;;;;;5039462;28;20081;-88
2024/01/14 02:38:06;;;;;;;97.70;37.47;;;3.10;99.90;;;;;;5039221;28;20048;-89
2024/01/14 02:40:33;;;;;;;106.28;38.83;;;3.10;99.90;;;;;;5020340;28;20032;-89
2024/01/14 02:42:58;;;;;;;100.75;39.55;;;3.10;99.90;;;;;;5039642;28;20033;-89
2024/01/14 02:45:24;;;;;;;99.30;36.45;;;3.10;99.90;;;;;;5030134;28;20034;-89
2024/01/14 02:47:50;;;;;;;106.22;40.00;;;3.10;99.90;;;;;;5030013;28;20041;-89
2024/01/14 02:50:15;;;;;;;99.97;38.65;;;3.10;99.90;;;;;;5037581;28;20037;-91
2024/01/14 02:52:41;;;;;;;106.05;38.83;;;3.10;99.90;;;;;;5033102;28;20564;-90
2024/01/14 02:55:06;;;;;;;110.60;41.90;;;3.00;99.90;;;;;;5024919;28;20028;-89
2024/01/14 02:57:33;;;;;;;100.25;37.63;;;3.00;99.90;;;;;;5040498;28;20033;-89
2024/01/14 02:59:58;;;;;;;104.07;40.05;;;3.00;99.90;;;;;;5037049;28;20048;-89
2024/01/14 03:02:24;;;;;;;106.25;40.67;;;3.00;99.90;;;;;;5046933;28;20089;-89
2024/01/14 03:04:49;;;;;;;103.10;40.25;;;3.00;99.90;;;;;;5037423;28;20032;-89
2024/01/14 03:07:15;;;;;;;98.38;37.75;;;3.00;99.90;;;;;;5038262;28;20032;-89
2024/01/14 03:09:40;;;;;;;103.57;39.83;;;3.00;99.90;;;;;;5037583;28;20026;-89
2024/01/14 03:12:06;;;;;;;110.05;40.42;;;3.00;99.90;;;;;;5050350;28;20068;-90
2024/01/14 03:14:32;;;;;;;112.70;40.72;;;3.00;99.90;;;;;;5028307;28;20433;-90
2024/01/14 03:16:59;;;;;;;118.65;41.58;;;3.00;99.90;;;;;;5025769;28;20048;-90
2024/01/14 03:19:25;;;;;;;107.13;41.80;;;3.00;99.90;;;;;;5032194;28;20066;-90
2024/01/14 03:21:51;;;;;;;117.70;41.67;;;3.00;99.90;;;;;;5043197;28;20525;-89
2024/01/14 03:24:17;;;;;;;111.72;43.10;;;3.00;99.90;;;;;;5043158;28;20048;-89
2024/01/14 03:26:42;;;;;;;109.38;40.15;;;3.00;99.90;;;;;;5041653;28;20065;-89
2024/01/14 03:29:08;;;;;;;117.47;40.13;;;3.00;99.90;;;;;;5042196;28;20045;-88
2024/01/14 03:31:34;;;;;;;113.43;40.10;;;2.90;99.90;;;;;;5042221;28;20030;-88
2024/01/14 03:33:59;;;;;;;111.00;39.45;;;2.90;99.90;;;;;;5042856;28;20052;-89
2024/01/14 03:36:25;;;;;;;102.78;37.40;;;2.90;99.90;;;;;;5042873;28;20041;-88
2024/01/14 03:38:50;;;;;;;100.60;40.25;;;2.90;99.90;;;;;;5041951;28;20030;-88
2024/01/14 03:41:16;;;;;;;105.35;38.90;;;2.90;99.90;;;;;;5025404;28;20125;-88
2024/01/14 03:43:42;;;;;;;108.88;41.17;;;2.90;99.90;;;;;;5045831;28;20032;-89
2024/01/14 03:46:08;;;;;;;104.15;37.30;;;2.90;99.90;;;;;;5042341;28;20496;-89
2024/01/14 03:48:33;;;;;;;94.35;36.35;;;2.90;99.90;;;;;;5030039;28;20034;-89
2024/01/14 03:50:59;;;;;;;105.80;39.00;;;2.90;99.90;;;;;;5043096;28;20079;-88
2024/01/14 03:53:24;;;;;;;91.50;34.30;;;2.80;99.90;;;;;;5039217;28;20053;-89
2024/01/14 03:55:50;;;;;;;93.35;35.60;;;2.80;99.90;;;;;;5043126;28;20026;-88
2024/01/14 03:58:16;;;;;;;101.70;40.08;;;2.80;99.90;;;;;;5034297;28;20122;-89
2024/01/14 04:00:41;;;;;;;102.45;37.65;;;2.80;99.90;;;;;;5041832;28;20033;-88
2024/01/14 04:03:07;;;;;;;99.05;36.00;;;2.90;99.90;;;;;;5036667;28;20026;-88
2024/01/14 04:05:32;;;;;;;96.80;37.35;;;2.80;99.90;;;;;;5044601;28;20032;-89
2024/01/14 04:07:58;;;;;;;83.85;33.05;;;2.90;99.90;;;;;;5046652;28;20063;-88
2024/01/14 04:10:24;;;;;;;94.55;35.13;;;2.80;99.90;;;;;;5044752;28;20033;-88
2024/01/14 04:12:49;;;;;;;90.95;35.83;;;2.80;99.90;;;;;;5043317;28;20033;-89
2024/01/14 04:15:15;;;;;;;100.78;36.33;;;2.80;99.90;;;;;;5040343;28;20036;-88
2024/01/14 04:17:41;;;;;;;97.70;36.90;;;2.80;99.90;;;;;;5041687;28;20029;-89
2024/01/14 04:20:07;;;;;;;93.10;36.40;;;2.70;99.90;;;;;;5045390;28;20040;-88
2024/01/14 04:22:33;;;;;;;95.32;36.38;;;2.80;99.90;;;;;;5038526;28;20017;-88
2024/01/14 04:24:59;;;;;;;98.90;35.17;;;2.80;99.90;;;;;;5037067;28;20037;-89
2024/01/14 04:27:24;;;;;;;97.65;35.88;;;2.70;99.90;;;;;;5040431;28;20552;-88
2024/01/14 04:29:50;;;;;;;99.30;36.85;;;2.70;99.90;;;;;;5034508;28;20096;-88
2024/01/14 04:32:15;;;;;;;95.60;35.22;;;2.70;99.90;;;;;;5044238;28;20025;-88
2024/01/14 04:34:41;;;;;;;97.78;36.25;;;2.70;99.90;;;;;;5043594;28;20045;-88
2024/01/14 04:37:06;;;;;;;94.78;37.30;;;2.70;99.90;;;;;;5042643;28;20021;-88
2024/01/14 04:39:32;;;;;;;97.82;37.83;;;2.70;99.90;;;;;;5044035;28;20033;-88
2024/01/14 04:41:58;;;;;;;94.95;35.97;;;2.80;99.90;;;;;;5034128;28;20035;-88
2024/01/14 04:44:23;;;;;;;93.60;35.60;;;2.70;99.90;;;;;;5044633;28;20029;-88
2024/01/14 04:46:49;;;;;;;101.10;37.58;;;2.70;99.90;;;;;;5040442;28;20051;-89
2024/01/14 04:49:14;;;;;;;103.53;39.00;;;2.70;99.90;;;;;;5039915;28;20045;-89
2024/01/14 04:51:40;;;;;;;100.57;37.05;;;2.70;99.90;;;;;;5041389;28;20116;-89
2024/01/14 04:54:07;;;;;;;96.20;37.72;;;2.70;99.90;;;;;;5044113;28;20038;-89
2024/01/14 04:56:33;;;;;;;100.18;38.50;;;2.70;99.90;;;;;;5040284;28;20053;-88
2024/01/14 04:58:59;;;;;;;105.07;38.28;;;2.70;99.90;;;;;;5039504;28;20034;-87
2024/01/14 05:01:24;;;;;;;102.22;40.38;;;2.70;99.90;;;;;;5043149;28;20040;-89
2024/01/14 05:03:50;;;;;;;102.95;38.40;;;2.70;99.90;;;;;;5043111;28;20029;-89
2024/01/14 05:06:16;;;;;;;102.47;39.03;;;2.70;99.90;;;;;;5043045;28;20116;-89
2024/01/14 05:08:42;;;;;;;96.07;36.22;;;2.70;99.90;;;;;;5043839;28;20045;-89
2024/01/14 05:11:08;;;;;;;96.93;38.45;;;2.70;99.90;;;;;;5026198;28;20493;-88
2024/01/14 05:13:33;;;;;;;96.80;35.63;;;2.70;99.90;;;;;;5035599;28;20030;-89
2024/01/14 05:15:59;;;;;;;97.28;38.13;;;2.70;99.90;;;;;;5036134;28;20551;-88
2024/01/14 05:18:25;;;;;;;102.90;38.55;;;2.70;99.90;;;;;;5032260;28;20041;-89
2024/01/14 05:20:50;;;;;;;94.20;37.60;;;2.70;99.90;;;;;;5021882;28;20022;-88
2024/01/14 05:23:16;;;;;;;93.78;36.72;;;2.70;99.90;;;;;;5027682;28;20033;-89
2024/01/14 05:25:42;;;;;;;88.82;33.22;;;2.70;99.90;;;;;;5029770;28;20122;-89
2024/01/14 05:28:07;;;;;;;100.15;37.72;;;2.60;99.90;;;;;;5031255;28;20041;-88
2024/01/14 05:30:33;;;;;;;98.22;38.38;;;2.60;99.90;;;;;;5022588;28;20064;-89
2024/01/14 05:32:58;;;;;;;91.78;36.00;;;2.60;99.90;;;;;;5020356;28;20021;-88
2024/01/14 05:35:24;;;;;;;95.88;35.85;;;2.60;99.90;;;;;;5024608;28;20072;-89
2024/01/14 05:37:50;;;;;;;85.50;35.33;;;2.60;99.90;;;;;;5025747;28;20018;-87
2024/01/14 05:40:15;;;;;;;95.57;37.05;;;2.60;99.90;;;;;;5016092;28;20048;-89
2024/01/14 05:42:42;;;;;;;85.18;33.35;;;2.60;99.90;;;;;;5031253;28;20079;-88
2024/01/14 05:45:12;;;;;;;89.57;34.92;;;2.60;99.90;;;;;;5027579;28;20034;-89
2024/01/14 05:47:38;;;;;;;81.95;33.95;;;2.60;99.90;;;;;;5017913;28;20417;-87
2024/01/14 05:50:06;;;;;;;91.72;36.30;;;2.60;99.90;;;;;;5028640;28;20026;-88
2024/01/14 05:52:31;;;;;;;85.65;34.45;;;2.60;99.90;;;;;;5029693;28;20030;-88
2024/01/14 05:54:57;;;;;;;93.28;38.60;;;2.60;99.90;;;;;;5031240;28;20083;-88
2024/01/14 05:57:23;;;;;;;99.70;40.28;;;2.60;99.90;;;;;;5028366;28;20033;-89
2024/01/14 05:59:49;;;;;;;93.03;38.72;;;2.50;99.90;;;;;;5022206;28;20393;-88
2024/01/14 06:02:15;;;;;;;96.93;39.65;;;2.50;99.90;;;;;;5031329;28;20098;-89
2024/01/14 06:04:40;;;;;;;97.50;37.75;;;2.50;99.90;;;;;;5019386;28;20033;-89
2024/01/14 06:07:06;;;;;;;97.88;37.90;;;2.50;99.90;;;;;;5025854;28;20477;-89
2024/01/14 06:09:32;;;;;;;101.10;39.40;;;2.50;99.90;;;;;;5024663;28;20034;-89
2024/01/14 06:11:57;;;;;;;87.20;36.13;;;2.50;99.90;;;;;;5034143;28;20164;-89
2024/01/14 06:14:23;;;;;;;90.95;38.40;;;2.40;99.90;;;;;;5028127;28;20028;-90
2024/01/14 06:16:48;;;;;;;99.03;39.80;;;2.40;99.90;;;;;;5029779;28;20028;-89
2024/01/14 06:19:14;;;;;;;102.30;39.90;;;2.40;99.90;;;;;;5032084;28;20061;-90
2024/01/14 06:21:43;;;;;;;95.55;38.38;;;2.40;99.90;;;;;;5029942;28;20079;-89
2024/01/14 06:24:09;;;;;;;100.13;39.95;;;2.40;99.90;;;;;;5027757;28;20030;-89
2024/01/14 06:26:35;;;;;;;97.30;37.97;;;2.40;99.90;;;;;;5028100;28;20030;-90
2024/01/14 06:29:01;;;;;;;100.80;40.78;;;2.30;99.90;;;;;;5021317;28;20427;-89
2024/01/14 06:31:26;;;;;;;108.22;40.28;;;2.30;99.90;;;;;;5018773;28;20021;-89
2024/01/14 06:33:52;;;;;;;98.45;39.10;;;2.40;99.90;;;;;;5022410;28;20060;-90
2024/01/14 06:36:19;;;;;;;99.28;39.60;;;2.30;99.90;;;;;;5023279;28;20050;-88
2024/01/14 06:38:44;;;;;;;99.05;38.55;;;2.30;99.90;;;;;;5033375;28;20029;-88
2024/01/14 06:41:20;;;;;;;112.35;43.92;;;2.30;99.90;;;;;;5028163;28;20328;-89
2024/01/14 06:43:46;;;;;;;99.13;38.47;;;2.30;99.90;;;;;;5021912;28;20051;-90
2024/01/14 06:46:12;;;;;;;95.20;37.85;;;2.30;99.90;;;;;;5023659;28;20097;-88
2024/01/14 06:48:38;;;;;;;97.50;38.55;;;2.30;99.90;;;;;;5028808;28;20041;-89
2024/01/14 06:51:04;;;;;;;98.40;39.15;;;2.20;99.90;;;;;;5023786;28;20414;-89
2024/01/14 06:53:29;;;;;;;102.05;39.35;;;2.20;99.90;;;;;;5031585;28;20106;-88
2024/01/14 06:55:55;;;;;;;99.72;38.63;;;2.20;99.90;;;;;;5031988;28;20021;-89
2024/01/14 06:58:21;;;;;;;109.57;41.80;;;2.20;99.90;;;;;;5015159;28;20029;-88
2024/01/14 07:00:46;;;;;;;103.40;38.80;;;2.20;99.90;;;;;;5012703;28;20021;-88
2024/01/14 07:03:12;;;;;;;108.60;41.10;;;2.20;99.90;;;;;;5027417;28;20028;-88
2024/01/14 07:05:37;;;;;;;102.72;38.45;;;2.20;99.90;;;;;;5031894;28;20044;-88
2024/01/14 07:08:04;;;;;;;102.55;38.50;;;2.20;99.90;;;;;;5029410;28;20059;-89
2024/01/14 07:10:30;;;;;;;111.00;41.58;;;2.20;99.90;;;;;;5028614;28;20041;-89
2024/01/14 07:12:56;;;;;;;107.22;40.80;;;2.20;99.90;;;;;;5025109;28;20128;-89
2024/01/14 07:15:22;;;;;;;110.25;43.35;;;2.20;99.90;;;;;;5030316;28;20109;-88
2024/01/14 07:17:49;;;;;;;107.60;41.97;;;2.20;99.90;;;;;;5024031;28;20096;-89
2024/01/14 07:20:15;;;;;;;111.65;44.67;;;2.10;99.90;;;;;;5021360;28;20064;-89
2024/01/14 07:22:40;;;;;;;111.40;40.35;;;2.10;99.90;;;;;;5024786;28;20022;-89
2024/01/14 07:25:06;;;;;;;108.13;42.35;;;2.10;99.90;;;;;;5015654;28;20025;-88
2024/01/14 07:27:33;;;;;;;106.63;41.42;;;2.20;99.90;;;;;;5028180;28;20038;-88
2024/01/14 07:29:59;;;;;;;100.60;39.55;;;2.10;99.90;;;;;;5028548;28;20021;-88
2024/01/14 07:32:24;;;;;;;105.18;40.45;;;2.20;99.90;;;;;;5024631;28;20021;-87
2024/01/14 07:34:50;;;;;;;106.47;40.35;;;2.20;99.90;;;;;;5031319;28;20057;-88
2024/01/14 07:37:15;;;;;;;103.28;40.28;;;2.20;99.90;;;;;;5025205;28;20026;-88
2024/01/14 07:39:41;;;;;;;112.82;42.60;;;2.20;99.90;;;;;;5025639;28;20021;-88
2024/01/14 07:42:06;;;;;;;108.22;41.92;;;2.20;99.90;;;;;;5033386;28;20022;-88
2024/01/14 07:44:32;;;;;;;105.22;42.03;;;2.20;99.90;;;;;;5033578;28;20029;-87
2024/01/14 07:46:57;;;;;;;102.95;38.83;;;2.30;99.90;;;;;;5034334;28;20029;-88
2024/01/14 07:49:23;;;;;;;100.97;39.50;;;2.30;99.90;;;;;;5031759;28;20040;-89
2024/01/14 07:51:49;;;;;;;108.20;42.45;;;2.30;99.90;;;;;;5032250;28;20026;-88
2024/01/14 07:54:14;;;;;;;100.00;37.75;;;2.30;99.90;;;;;;5035513;28;20026;-90
2024/01/14 07:56:40;;;;;;;103.95;39.17;;;2.30;99.90;;;;;;5034499;28;20095;-88
2024/01/14 07:59:05;;;;;;;100.25;39.78;;;2.30;99.90;;;;;;5024893;28;20037;-88
2024/01/14 08:01:31;;;;;;;102.97;38.90;;;2.30;99.90;;;;;;5024668;28;20026;-89
2024/01/14 08:03:56;;;;;;;102.60;38.72;;;2.30;99.90;;;;;;5026184;28;20042;-88
2024/01/14 08:06:24;;;;;;;110.38;40.67;;;2.30;99.90;;;;;;5034024;28;20381;-89
2024/01/14 08:08:50;;;;;;;96.82;37.30;;;2.30;99.90;;;;;;5028804;28;20041;-88
2024/01/14 08:11:16;;;;;;;101.10;39.03;;;2.30;99.90;;;;;;5023233;28;20396;-89
2024/01/14 08:13:42;;;;;;;98.90;35.90;;;2.30;99.90;;;;;;5040389;28;20477;-88
2024/01/14 08:16:08;;;;;;;104.88;38.88;;;2.40;99.90;;;;;;5044659;28;20029;-88
2024/01/14 08:18:34;;;;;;;102.80;40.20;;;2.30;99.90;;;;;;5039663;28;20033;-90
2024/01/14 08:21:00;;;;;;;87.55;33.60;;;2.30;99.90;;;;;;5033544;28;20037;-89
2024/01/14 08:23:28;;;;;;;95.80;37.10;;;2.30;99.90;;;;;;5030591;28;20505;-90
2024/01/14 08:25:54;;;;;;;96.25;34.78;;;2.40;99.90;;;;;;5039282;28;20611;-91
2024/01/14 08:28:20;;;;;;;93.38;34.67;;;2.30;99.90;;;;;;5031643;28;20076;-90
2024/01/14 08:30:46;;;;;;;90.57;36.58;;;2.40;99.90;;;;;;5039654;28;20029;-90
2024/01/14 08:33:12;;;;;;;92.03;34.13;;;2.30;99.90;;;;;;5031437;28;20053;-89
2024/01/14 08:35:37;;;;;;;93.55;33.95;;;2.40;99.90;;;;;;5037979;28;20053;-91
2024/01/14 08:38:03;;;;;;;93.47;33.83;;;2.40;99.90;;;;;;5050723;28;20120;-89
2024/01/14 08:40:29;;;;;;;86.45;34.30;;;2.40;99.90;;;;;;5037369;28;20129;-90
2024/01/14 08:42:55;;;;;;;88.38;34.30;;;2.40;99.90;;;;;;5038535;28;20018;-90
2024/01/14 08:45:21;;;;;;;96.88;36.08;;;2.40;99.90;;;;;;5046458;28;20041;-90
2024/01/14 08:47:47;;;;;;;89.45;34.63;;;2.30;99.90;;;;;;5039081;28;20057;-91
2024/01/14 08:50:13;;;;;;;93.00;35.90;;;2.40;99.90;;;;;;5030384;28;20367;-90
2024/01/14 08:52:39;;;;;;;81.97;33.42;;;2.40;99.90;;;;;;5043719;28;20032;-90
2024/01/14 08:55:06;;;;;;;102.18;35.47;;;2.40;99.90;;;;;;5046759;28;20052;-91
2024/01/14 08:57:31;;;;;;;91.97;35.88;;;2.40;99.90;;;;;;5040711;28;20022;-91
2024/01/14 09:00:04;;;;;;;92.03;35.28;;;2.50;99.90;;;;;;5044725;28;20079;-90
2024/01/14 09:02:31;;;;;;;85.63;34.60;;;2.50;99.90;;;;;;5042175;28;20117;-91
2024/01/14 09:04:57;;;;;;;86.82;34.13;;;2.40;99.90;;;;;;5034650;28;20068;-91
2024/01/14 09:07:23;;;;;;;78.53;32.38;;;2.50;99.90;;;;;;5046554;28;20370;-91
2024/01/14 09:09:49;;;;;;;90.57;35.58;;;2.50;99.90;;;;;;5022268;28;20034;-90
2024/01/14 09:12:15;;;;;;;84.57;33.90;;;2.50;99.90;;;;;;5041514;28;20025;-89
2024/01/14 09:14:40;;;;;;;84.78;33.58;;;2.50;99.90;;;;;;5041390;28;20053;-90
2024/01/14 09:17:06;;;;;;;86.05;33.55;;;2.50;99.90;;;;;;5042086;28;20041;-90
2024/01/14 09:19:33;;;;;;;85.20;34.30;;;2.50;99.90;;;;;;5042557;28;20552;-90
2024/01/14 09:22:00;;;;;;;82.22;33.17;;;2.50;99.90;;;;;;5041177;28;20061;-90
2024/01/14 09:24:26;;;;;;;87.00;34.88;;;2.50;99.90;;;;;;5045577;28;20021;-90
2024/01/14 09:26:52;;;;;;;79.88;31.30;;;2.50;99.90;;;;;;5047174;28;20060;-90
2024/01/14 09:29:17;;;;;;;91.18;34.05;;;2.50;99.90;;;;;;5043774;28;20049;-90
2024/01/14 09:31:45;;;;;;;80.15;31.70;;;2.50;99.90;;;;;;5035291;28;20029;-90
2024/01/14 09:34:11;;;;;;;82.35;33.95;;;2.50;99.90;;;;;;5026900;28;20034;-89
2024/01/14 09:36:38;;;;;;;86.43;34.92;;;2.50;99.90;;;;;;5027071;28;20108;-90
2024/01/14 09:39:04;;;;;;;89.53;34.35;;;2.50;99.90;;;;;;5021766;28;20034;-90
2024/01/14 09:41:53;;;;;;;88.90;36.60;;;2.50;99.90;;;;;;5023621;28;20040;-90
2024/01/14 09:44:19;;;;;;;89.72;34.72;;;2.50;99.90;;;;;;5027424;28;20052;-90
2024/01/14 09:46:46;;;;;;;86.38;35.05;;;2.50;99.90;;;;;;5032731;28;20017;-90
2024/01/14 09:49:13;;;;;;;89.03;34.67;;;2.50;99.90;;;;;;5032101;28;20456;-90
2024/01/14 09:51:41;;;;;;;91.97;35.45;;;2.50;99.90;;;;;;5032434;28;20022;-90
2024/01/14 09:54:07;;;;;;;87.22;34.08;;;2.60;99.90;;;;;;5031011;28;20031;-90
2024/01/14 09:56:34;;;;;;;90.38;35.10;;;2.60;99.90;;;;;;5029918;28;20025;-91
2024/01/14 09:59:02;;;;;;;92.82;36.00;;;2.60;99.90;;;;;;5019673;28;20038;-90
2024/01/14 10:01:33;;;;;;;96.65;36.75;;;2.60;99.90;;;;;;5021776;28;20021;-90
2024/01/14 10:04:02;;;;;;;89.07;35.13;;;2.60;99.90;;;;;;5030364;28;20360;-90
2024/01/14 10:06:28;;;;;;;87.85;34.75;;;2.70;99.90;;;;;;5024117;28;20108;-90
2024/01/14 10:08:55;;;;;;;95.10;36.85;;;2.70;99.90;;;;;;5029359;28;20124;-90
2024/01/14 10:11:20;;;;;;;94.45;35.50;;;2.70;99.90;;;;;;5031607;28;20021;-90
2024/01/14 10:13:48;;;;;;;87.95;35.40;;;2.70;99.90;;;;;;5028026;28;20026;-89
2024/01/14 10:16:14;;;;;;;94.07;36.28;;;2.70;99.90;;;;;;5028375;28;20022;-90
2024/01/14 10:18:39;;;;;;;95.30;38.05;;;2.70;99.90;;;;;;5029403;28;20036;-90
2024/01/14 10:21:05;;;;;;;94.18;36.75;;;2.70;99.90;;;;;;5030374;28;20025;-91
2024/01/14 10:23:31;;;;;;;91.78;35.80;;;2.70;99.90;;;;;;5030457;28;20029;-90
2024/01/14 10:26:02;;;;;;;101.65;38.33;;;2.80;99.90;;;;;;5018649;28;20057;-89
2024/01/14 10:28:35;;;;;;;100.40;36.28;;;2.80;99.90;;;;;;5029354;28;20099;-89
2024/01/14 10:31:06;;;;;;;;;;;2.80;99.90;;;;;;5024618;28;20038;-90
2024/01/14 10:33:33;;;;;;;96.53;35.38;;;2.80;99.90;;;;;;5028930;28;19916;-87
2024/01/14 10:35:59;;;;;;;100.97;37.05;;;2.80;99.90;;;;;;5024053;28;20060;-88
2024/01/14 10:38:25;;;;;;;96.82;36.63;;;2.80;99.90;;;;;;5013891;28;20049;-89
2024/01/14 10:40:51;;;;;;;92.10;35.88;;;2.80;99.90;;;;;;5023965;28;20029;-87
2024/01/14 10:43:17;;;;;;;100.28;37.20;;;2.80;99.90;;;;;;5020592;28;20101;-89
2024/01/14 10:45:47;;;;;;;99.88;36.53;;;2.80;99.90;;;;;;5019120;28;20057;-88
2024/01/14 10:48:13;;;;;;;94.95;35.15;;;2.90;99.90;;;;;;5018925;28;20029;-87
2024/01/14 10:50:43;;;;;;;101.20;36.35;;;2.90;99.90;;;;;;5031682;28;20495;-89
2024/01/14 10:53:22;;;;;;;88.00;35.55;;;2.90;99.90;;;;;;5031171;28;20029;-88
2024/01/14 10:55:50;;;;;;;91.38;34.58;;;3.00;99.90;;;;;;5031864;28;20460;-87
2024/01/14 10:58:29;;;;;;;87.63;33.85;;;3.10;99.90;;;;;;5022677;28;20053;-87
2024/01/14 11:00:59;;;;;;;85.10;32.55;;;3.10;99.90;;;;;;5025589;28;20036;-88
2024/01/14 11:03:27;;;;;;;87.95;34.47;;;3.10;99.90;;;;;;5022290;28;20030;-89
2024/01/14 11:05:54;;;;;;;84.13;32.45;;;3.20;99.90;;;;;;5031587;28;20034;-88
2024/01/14 11:08:21;;;;;;;75.38;29.80;;;3.20;99.90;;;;;;5028162;28;20041;-88
2024/01/14 11:10:52;;;;;;;76.95;32.22;;;3.20;99.90;;;;;;5014604;28;20022;-88
2024/01/14 11:13:26;;;;;;;74.07;31.75;;;3.20;99.90;;;;;;5012934;28;20084;-87
2024/01/14 11:16:09;;;;;;;75.43;30.52;;;3.20;99.90;;;;;;5028639;28;20400;-87
2024/01/14 11:18:49;;;;;;;82.22;32.75;;;3.20;99.90;;;;;;5023390;28;20481;-87
2024/01/14 11:21:33;;;;;;;77.28;30.42;;;3.20;99.90;;;;;;5028066;28;20026;-87
2024/01/14 11:23:59;;;;;;;76.63;30.58;;;3.20;99.90;;;;;;5029970;28;20087;-88
2024/01/14 11:26:25;;;;;;;77.65;28.70;;;3.20;99.90;;;;;;5025443;28;20053;-89
2024/01/14 11:28:53;;;;;;;70.07;28.90;;;3.10;99.90;;;;;;5032504;28;20045;-87
2024/01/14 11:31:18;;;;;;;71.40;30.05;;;3.10;99.90;;;;;;5031066;28;20420;-88
2024/01/14 11:33:46;;;;;;;64.38;27.42;;;3.20;99.90;;;;;;5029634;28;20014;-87
2024/01/14 11:36:33;;;;;;;67.38;28.60;;;3.20;99.90;;;;;;5026522;28;20041;-88
2024/01/14 11:39:05;;;;;;;68.40;27.73;;;3.10;99.90;;;;;;5030737;28;20378;-88
2024/01/14 11:41:34;;;;;;;68.85;29.75;;;3.10;99.90;;;;;;5012679;28;20076;-86
2024/01/14 11:44:10;;;;;;;65.82;28.33;;;3.10;99.90;;;;;;5016127;28;20033;-87
2024/01/14 11:46:43;;;;;;;75.15;28.73;;;3.20;99.90;;;;;;5031723;28;20030;-88
2024/01/14 11:49:10;;;;;;;62.58;26.20;;;3.20;99.90;;;;;;5028740;28;20041;-89
2024/01/14 11:51:43;;;;;;;69.45;28.67;;;3.20;99.90;;;;;;5026458;28;20025;-89
2024/01/14 11:54:09;;;;;;;;;;;3.20;99.90;;;;;;5019071;28;20120;-88
2024/01/14 11:56:35;;;;;;;59.17;26.23;;;3.20;99.90;;;;;;5023672;28;19909;-89
2024/01/14 11:59:08;;;;;;;66.07;27.05;;;3.20;99.90;;;;;;5030004;28;20094;-88
2024/01/14 12:01:35;;;;;;;64.20;27.05;;;3.20;99.90;;;;;;5047872;28;20033;-89
2024/01/14 12:04:05;;;;;;;64.57;27.85;;;3.20;99.90;;;;;;5029523;28;20030;-89
2024/01/14 12:06:43;;;;;;;56.50;25.77;;;3.20;99.90;;;;;;5030723;28;20033;-90
2024/01/14 12:09:13;;;;;;;59.33;25.75;;;3.30;99.90;;;;;;5026113;28;20401;-89
2024/01/14 12:11:39;;;;;;;58.28;23.88;;;3.30;99.90;;;;;;5030834;28;20026;-89
2024/01/14 12:14:05;;;;;;;69.60;27.90;;;3.30;99.90;;;;;;5013946;28;20036;-89
2024/01/14 12:16:31;;;;;;;58.92;26.02;;;3.30;99.90;;;;;;5025812;28;20108;-90
2024/01/14 12:18:58;;;;;;;64.78;27.83;;;3.30;99.90;;;;;;5029797;28;20025;-89
2024/01/14 12:21:25;;;;;;;60.20;25.50;;;3.20;99.90;;;;;;5031203;28;20469;-90
2024/01/14 12:23:54;;;;;;;60.53;25.33;;;3.20;99.90;;;;;;5030439;28;20449;-90
2024/01/14 12:26:20;;;;;;;59.05;25.45;;;3.10;99.90;;;;;;5029913;28;20057;-90
2024/01/14 12:28:47;;;;;;;62.53;27.40;;;3.10;99.90;;;;;;5017476;28;20041;-89
2024/01/14 12:31:21;;;;;;;60.08;25.08;;;3.10;99.90;;;;;;5037866;28;20028;-89